createdAt,value
2023-05-24T00:01:28.898Z,100.00
2023-05-24T00:04:01.187Z,100.00
2023-05-24T00:06:35.123Z,100.00
2023-05-24T00:09:05.281Z,100.00
2023-05-24T00:11:35.459Z,100.00
2023-05-24T00:14:05.620Z,100.00
2023-05-24T00:16:35.921Z,100.00
2023-05-24T00:19:06.093Z,100.00
2023-05-24T00:21:38.871Z,100.00
2023-05-24T00:24:11.299Z,100.00
2023-05-24T00:26:41.502Z,100.00
2023-05-24T00:29:11.835Z,100.00
2023-05-24T00:31:42.224Z,100.00
2023-05-24T00:34:13.437Z,100.00
2023-05-24T00:36:46.167Z,100.00
2023-05-24T00:39:16.409Z,100.00
2023-05-24T00:41:46.549Z,100.00
2023-05-24T00:44:16.735Z,100.00
2023-05-24T00:46:47.401Z,100.00
2023-05-24T00:49:18.996Z,100.00
2023-05-24T00:51:52.162Z,100.00
2023-05-24T00:54:22.652Z,100.00
2023-05-24T00:56:54.437Z,100.00
2023-05-24T00:59:25.023Z,100.00
2023-05-24T01:01:55.753Z,100.00
2023-05-24T01:04:26.298Z,100.00
2023-05-24T01:07:10.951Z,100.00
2023-05-24T01:09:54.043Z,100.00
2023-05-24T01:12:35.433Z,100.00
2023-05-24T01:15:15.591Z,100.00
2023-05-24T01:17:54.788Z,100.00
2023-05-24T01:20:30.790Z,100.00
2023-05-24T01:23:10.712Z,100.00
2023-05-24T01:26:09.377Z,100.00
2023-05-24T01:28:43.634Z,100.00
2023-05-24T01:31:16.024Z,100.00
2023-05-24T01:33:47.065Z,100.00
2023-05-24T01:36:17.298Z,100.00
2023-05-24T01:38:49.390Z,100.00
2023-05-24T01:41:30.110Z,100.00
2023-05-24T01:44:10.639Z,100.00
2023-05-24T01:46:42.030Z,100.00
2023-05-24T01:49:21.154Z,100.00
2023-05-24T01:51:54.631Z,100.00
2023-05-24T01:54:26.868Z,100.00
2023-05-24T01:56:59.330Z,100.00
2023-05-24T01:59:35.427Z,100.00
2023-05-24T02:02:06.035Z,100.00
2023-05-24T02:04:36.498Z,100.00
2023-05-24T02:07:07.068Z,100.00
2023-05-24T02:09:37.254Z,100.00
2023-05-24T02:12:08.195Z,100.00
2023-05-24T02:14:43.002Z,100.00
2023-05-24T02:17:13.318Z,100.00
2023-05-24T02:19:43.968Z,100.00
2023-05-24T02:22:14.091Z,100.00
2023-05-24T02:24:44.230Z,100.00
2023-05-24T02:27:14.335Z,100.00
2023-05-24T02:29:47.888Z,100.00
2023-05-24T02:32:17.746Z,100.00
2023-05-24T02:34:48.117Z,100.00
2023-05-24T02:37:18.301Z,100.00
2023-05-24T02:39:48.400Z,100.00
2023-05-24T02:42:18.812Z,100.00
2023-05-24T02:44:52.863Z,100.00
2023-05-24T02:47:23.099Z,100.00
2023-05-24T02:49:53.199Z,100.00
2023-05-24T02:52:24.182Z,100.00
2023-05-24T02:54:54.401Z,100.00
2023-05-24T02:57:25.081Z,100.00
2023-05-24T02:59:58.201Z,100.00
2023-05-24T03:02:28.835Z,100.00
2023-05-24T03:04:59.109Z,100.00
2023-05-24T03:07:29.304Z,100.00
2023-05-24T03:09:59.452Z,100.00
2023-05-24T03:12:30.002Z,100.00
2023-05-24T03:15:02.892Z,100.00
2023-05-24T03:17:34.515Z,100.00
2023-05-24T03:20:06.075Z,100.00
2023-05-24T03:22:36.653Z,100.00
2023-05-24T03:25:09.798Z,100.00
2023-05-24T03:27:39.944Z,100.00
2023-05-24T03:30:13.704Z,100.00
2023-05-24T03:32:53.018Z,100.00
2023-05-24T03:35:23.473Z,100.00
2023-05-24T03:37:53.745Z,100.00
2023-05-24T03:40:25.980Z,100.00
2023-05-24T03:43:00.823Z,100.00
2023-05-24T03:45:47.577Z,100.00
2023-05-24T03:48:17.979Z,100.00
2023-05-24T03:50:48.214Z,100.00
2023-05-24T03:53:19.578Z,100.00
2023-05-24T03:55:51.930Z,100.00
2023-05-24T03:58:22.726Z,100.00
2023-05-24T04:00:57.235Z,100.00
2023-05-24T04:03:28.141Z,100.00
2023-05-24T04:05:58.850Z,100.00
2023-05-24T04:08:29.576Z,100.00
2023-05-24T04:11:01.515Z,100.00
2023-05-24T04:13:31.786Z,100.00
2023-05-24T04:16:04.649Z,100.00
2023-05-24T04:18:34.838Z,100.00
2023-05-24T04:21:05.245Z,100.00
2023-05-24T04:23:35.997Z,100.00
2023-05-24T04:26:06.312Z,100.00
2023-05-24T04:28:38.300Z,100.00
2023-05-24T04:31:12.220Z,100.00
2023-05-24T04:33:43.436Z,100.00
2023-05-24T04:36:14.365Z,100.00
2023-05-24T04:38:45.947Z,100.00
2023-05-24T04:41:16.576Z,100.00
2023-05-24T04:43:46.748Z,100.00
2023-05-24T04:46:19.533Z,100.00
2023-05-24T04:48:49.754Z,100.00
2023-05-24T04:51:20.027Z,100.00
2023-05-24T04:53:50.209Z,100.00
2023-05-24T04:56:20.386Z,100.00
2023-05-24T04:58:51.730Z,100.00
2023-05-24T05:01:24.736Z,100.00
2023-05-24T05:03:55.081Z,100.00
2023-05-24T05:06:25.336Z,100.00
2023-05-24T05:08:55.468Z,100.00
2023-05-24T05:11:26.266Z,100.00
2023-05-24T05:13:56.614Z,100.00
2023-05-24T05:16:29.464Z,100.00
2023-05-24T05:18:59.531Z,100.00
2023-05-24T05:21:29.706Z,100.00
2023-05-24T05:23:59.846Z,100.00
2023-05-24T05:26:30.271Z,100.00
2023-05-24T05:29:01.204Z,100.00
2023-05-24T05:31:34.019Z,100.00
2023-05-24T05:34:04.162Z,100.00
2023-05-24T05:36:34.331Z,100.00
2023-05-24T05:39:04.848Z,100.00
2023-05-24T05:41:35.002Z,100.00
2023-05-24T05:44:05.222Z,100.00
2023-05-24T05:46:37.980Z,100.00
2023-05-24T05:49:08.262Z,100.00
2023-05-24T05:51:39.057Z,100.00
2023-05-24T05:54:14.552Z,100.00
2023-05-24T05:56:45.960Z,100.00
2023-05-24T05:59:16.515Z,100.00
2023-05-24T06:01:49.802Z,100.00
2023-05-24T06:04:20.400Z,100.00
2023-05-24T06:06:52.325Z,100.00
2023-05-24T06:09:24.420Z,100.00
2023-05-24T06:11:54.660Z,100.00
2023-05-24T06:14:25.350Z,100.00
2023-05-24T06:17:00.178Z,100.00
2023-05-24T06:19:31.368Z,100.00
2023-05-24T06:22:01.814Z,100.00
2023-05-24T06:24:34.540Z,100.00
2023-05-24T06:27:05.672Z,100.00
2023-05-24T06:29:36.034Z,100.00
2023-05-24T06:32:09.506Z,100.00
2023-05-24T06:34:39.632Z,100.00
2023-05-24T06:37:10.523Z,100.00
2023-05-24T06:39:40.725Z,100.00
2023-05-24T06:42:11.483Z,100.00
2023-05-24T06:44:41.614Z,100.00
2023-05-24T06:47:14.377Z,100.00
2023-05-24T06:49:44.932Z,100.00
2023-05-24T06:52:15.217Z,100.00
2023-05-24T06:54:45.427Z,100.00
2023-05-24T06:57:15.556Z,100.00
2023-05-24T06:59:45.678Z,100.00
2023-05-24T07:02:18.549Z,100.00
2023-05-24T07:04:48.790Z,100.00
2023-05-24T07:07:19.376Z,100.00
2023-05-24T07:09:50.566Z,100.00
2023-05-24T07:12:20.821Z,100.00
2023-05-24T07:14:50.983Z,100.00
2023-05-24T07:17:23.707Z,100.00
2023-05-24T07:19:53.961Z,100.00
2023-05-24T07:22:25.683Z,100.00
2023-05-24T07:24:56.950Z,100.00
2023-05-24T07:27:27.056Z,100.00
2023-05-24T07:29:57.461Z,100.00
2023-05-24T07:32:30.408Z,100.00
2023-05-24T07:35:00.630Z,100.00
2023-05-24T07:37:31.392Z,100.00
2023-05-24T07:40:01.635Z,100.00
2023-05-24T07:42:31.758Z,100.00
2023-05-24T07:45:01.910Z,100.00
2023-05-24T07:47:34.722Z,100.00
2023-05-24T07:50:04.923Z,100.00
2023-05-24T07:52:35.444Z,100.00
2023-05-24T07:55:05.562Z,100.00
2023-05-24T07:57:35.861Z,100.00
2023-05-24T08:00:10.730Z,100.00
2023-05-24T08:02:47.241Z,100.00
2023-05-24T08:05:18.497Z,100.00
2023-05-24T08:07:48.655Z,100.00
2023-05-24T08:10:18.911Z,100.00
2023-05-24T08:12:50.590Z,100.00
2023-05-24T08:15:21.068Z,100.00
2023-05-24T08:17:54.116Z,100.00
2023-05-24T08:20:24.423Z,100.00
2023-05-24T08:22:54.576Z,100.00
2023-05-24T08:25:24.768Z,100.00
2023-05-24T08:27:56.089Z,100.00
2023-05-24T08:30:26.855Z,100.00
2023-05-24T08:33:01.514Z,100.00
2023-05-24T08:35:31.734Z,100.00
2023-05-24T08:38:02.105Z,100.00
2023-05-24T08:40:32.240Z,100.00
2023-05-24T08:43:12.054Z,100.00
2023-05-24T08:45:43.609Z,100.00
2023-05-24T08:48:18.558Z,100.00
2023-05-24T08:50:49.420Z,100.00
2023-05-24T08:53:22.088Z,100.00
2023-05-24T08:55:53.617Z,100.00
2023-05-24T08:58:26.136Z,100.00
2023-05-24T09:00:56.586Z,100.00
2023-05-24T09:03:29.941Z,100.00
2023-05-24T09:06:01.399Z,100.00
2023-05-24T09:08:33.779Z,100.00
2023-05-24T09:11:08.053Z,100.00
2023-05-24T09:13:40.652Z,100.00
2023-05-24T09:16:11.837Z,100.00
2023-05-24T09:18:45.781Z,100.00
2023-05-24T09:21:16.460Z,100.00
2023-05-24T09:23:47.900Z,100.00
2023-05-24T09:26:18.308Z,100.00
2023-05-24T09:28:51.619Z,100.00
2023-05-24T09:31:21.874Z,100.00
2023-05-24T09:33:54.755Z,100.00
2023-05-24T09:36:27.760Z,100.00
2023-05-24T09:39:10.906Z,100.00
2023-05-24T09:41:41.916Z,100.00
2023-05-24T09:44:16.060Z,100.00
2023-05-24T09:46:46.584Z,100.00
2023-05-24T09:49:20.140Z,100.00
2023-05-24T09:51:50.327Z,100.00
2023-05-24T09:54:23.494Z,100.00
2023-05-24T09:56:54.772Z,100.00
2023-05-24T09:59:25.292Z,100.00
2023-05-24T10:02:00.286Z,100.00
2023-05-24T10:04:40.618Z,100.00
2023-05-24T10:07:12.490Z,100.00
2023-05-24T10:09:43.471Z,100.00
2023-05-24T10:12:13.609Z,100.00
2023-05-24T10:14:43.738Z,100.00
2023-05-24T10:17:14.175Z,100.00
2023-05-24T10:19:47.473Z,100.00
2023-05-24T10:22:17.410Z,100.00
2023-05-24T10:24:50.686Z,100.00
2023-05-24T10:27:22.044Z,100.00
2023-05-24T10:30:02.251Z,100.00
2023-05-24T10:32:34.375Z,100.00
2023-05-24T10:35:09.302Z,100.00
2023-05-24T10:37:39.513Z,100.00
2023-05-24T10:40:11.343Z,100.00
2023-05-24T10:42:42.779Z,100.00
2023-05-24T10:45:37.828Z,100.00
2023-05-24T10:48:36.491Z,100.00
2023-05-24T10:51:39.753Z,100.00
2023-05-24T10:54:18.826Z,100.00
2023-05-24T10:56:50.637Z,100.00
2023-05-24T10:59:35.153Z,100.00
2023-05-24T11:02:06.714Z,100.00
2023-05-24T11:04:40.928Z,100.00
2023-05-24T11:07:14.809Z,100.00
2023-05-24T11:09:53.029Z,100.00
2023-05-24T11:12:23.833Z,99.82
2023-05-24T11:14:55.235Z,98.33
2023-05-24T11:17:26.390Z,99.62
2023-05-24T11:19:57.574Z,96.62
2023-05-24T11:22:30.614Z,98.28
2023-05-24T11:25:06.284Z,93.88
2023-05-24T11:27:36.553Z,95.92
2023-05-24T11:30:07.657Z,96.57
2023-05-24T11:32:41.379Z,95.32
2023-05-24T11:35:12.017Z,92.34
2023-05-24T11:37:46.590Z,94.77
2023-05-24T11:40:18.354Z,89.15
2023-05-24T11:42:48.578Z,89.89
2023-05-24T11:45:23.854Z,94.47
2023-05-24T11:47:54.075Z,89.51
2023-05-24T11:50:45.967Z,89.22
2023-05-24T11:53:22.757Z,92.93
2023-05-24T11:55:52.977Z,90.42
2023-05-24T11:58:26.847Z,84.88
2023-05-24T12:00:58.827Z,86.70
2023-05-24T12:03:29.151Z,86.78
2023-05-24T12:06:00.632Z,93.07
2023-05-24T12:08:33.655Z,90.72
2023-05-24T12:11:05.462Z,91.41
2023-05-24T12:13:36.681Z,96.94
2023-05-24T12:16:07.025Z,91.40
2023-05-24T12:18:38.705Z,89.33
2023-05-24T12:21:14.373Z,79.46
2023-05-24T12:23:47.454Z,83.78
2023-05-24T12:26:17.721Z,86.38
2023-05-24T12:28:47.852Z,87.44
2023-05-24T12:31:18.113Z,84.96
2023-05-24T12:33:48.311Z,89.09
2023-05-24T12:36:18.614Z,89.33
2023-05-24T12:38:51.466Z,84.79
2023-05-24T12:41:21.995Z,87.26
2023-05-24T12:43:55.101Z,85.01
2023-05-24T12:46:25.268Z,81.49
2023-05-24T12:48:55.589Z,84.21
2023-05-24T12:51:25.727Z,81.94
2023-05-24T12:53:58.475Z,91.35
2023-05-24T12:56:28.613Z,84.34
2023-05-24T12:58:58.788Z,81.62
2023-05-24T13:01:29.354Z,79.33
2023-05-24T13:03:59.666Z,80.43
2023-05-24T13:06:29.908Z,85.06
2023-05-24T13:09:02.953Z,76.22
2023-05-24T13:11:33.522Z,86.70
2023-05-24T13:14:06.223Z,81.41
2023-05-24T13:16:36.870Z,81.66
2023-05-24T13:19:07.088Z,82.94
2023-05-24T13:21:37.291Z,75.72
2023-05-24T13:24:10.469Z,78.50
2023-05-24T13:26:40.521Z,81.32
2023-05-24T13:31:43.893Z,79.86
2023-05-24T13:34:14.394Z,77.40
2023-05-24T13:36:46.098Z,76.49
2023-05-24T13:39:19.977Z,78.55
2023-05-24T13:41:50.661Z,82.39
2023-05-24T13:44:21.703Z,84.01
2023-05-24T13:46:52.579Z,82.98
2023-05-24T13:49:23.021Z,81.58
2023-05-24T13:51:55.493Z,83.76
2023-05-24T13:54:30.119Z,81.40
2023-05-24T13:57:00.348Z,82.24
2023-05-24T13:59:30.469Z,83.12
2023-05-24T14:02:01.084Z,83.32
2023-05-24T14:04:34.096Z,80.84
2023-05-24T14:07:05.628Z,82.42
2023-05-24T14:09:38.416Z,76.83
2023-05-24T14:12:09.455Z,75.98
2023-05-24T14:17:12.652Z,78.10
2023-05-24T14:19:42.889Z,78.48
2023-05-24T14:22:13.171Z,76.87
2023-05-24T14:24:46.033Z,75.96
2023-05-24T14:27:16.229Z,75.39
2023-05-24T14:29:47.586Z,75.75
2023-05-24T14:32:18.009Z,68.76
2023-05-24T14:34:48.291Z,73.13
2023-05-24T14:37:18.529Z,71.56
2023-05-24T14:39:51.363Z,68.94
2023-05-24T14:42:21.863Z,72.63
2023-05-24T14:44:52.026Z,74.09
2023-05-24T14:47:22.242Z,71.37
2023-05-24T14:49:52.427Z,73.67
2023-05-24T14:52:22.749Z,72.46
2023-05-24T14:54:55.831Z,75.89
2023-05-24T14:57:26.040Z,75.32
2023-05-24T14:59:56.339Z,74.48
2023-05-24T15:02:26.585Z,73.87
2023-05-24T15:04:56.744Z,72.89
2023-05-24T15:07:27.186Z,70.09
2023-05-24T15:09:59.946Z,73.30
2023-05-24T15:12:30.313Z,71.24
2023-05-24T15:15:00.491Z,70.33
2023-05-24T15:17:30.658Z,68.10
2023-05-24T15:20:00.966Z,68.13
2023-05-24T15:22:31.095Z,71.06
2023-05-24T15:25:04.193Z,72.80
2023-05-24T15:27:34.480Z,75.11
2023-05-24T15:30:04.979Z,77.61
2023-05-24T15:32:35.119Z,77.78
2023-05-24T15:35:05.628Z,78.69
2023-05-24T15:37:35.805Z,79.82
2023-05-24T15:40:09.953Z,76.95
2023-05-24T15:42:40.119Z,77.35
2023-05-24T15:45:11.871Z,77.51
2023-05-24T15:47:42.307Z,76.97
2023-05-24T15:50:13.564Z,77.68
2023-05-24T15:52:43.798Z,80.59
2023-05-24T15:55:17.175Z,79.99
2023-05-24T15:57:47.397Z,82.04
2023-05-24T16:00:18.341Z,78.67
2023-05-24T16:02:49.348Z,81.69
2023-05-24T16:05:21.215Z,80.28
2023-05-24T16:07:51.422Z,81.19
2023-05-24T16:10:24.205Z,83.37
2023-05-24T16:12:54.350Z,85.42
2023-05-24T16:15:26.773Z,83.20
2023-05-24T16:17:57.074Z,83.80
2023-05-24T16:20:27.319Z,83.53
2023-05-24T16:22:58.295Z,84.57
2023-05-24T16:25:31.103Z,86.17
2023-05-24T16:28:01.275Z,87.05
2023-05-24T16:30:31.800Z,89.48
2023-05-24T16:33:02.050Z,89.99
2023-05-24T16:35:32.233Z,89.46
2023-05-24T16:38:02.586Z,92.04
2023-05-24T16:40:35.371Z,92.68
2023-05-24T16:43:10.596Z,91.15
2023-05-24T16:45:40.932Z,90.47
2023-05-24T16:48:11.235Z,91.57
2023-05-24T16:50:41.748Z,91.12
2023-05-24T16:53:12.074Z,94.04
2023-05-24T16:55:44.899Z,93.77
2023-05-24T16:58:15.021Z,94.70
2023-05-24T17:00:46.120Z,94.30
2023-05-24T17:03:16.505Z,95.87
2023-05-24T17:05:46.770Z,96.57
2023-05-24T17:08:16.915Z,96.69
2023-05-24T17:10:49.589Z,98.08
2023-05-24T17:13:19.785Z,100.00
2023-05-24T17:15:52.039Z,100.00
2023-05-24T17:18:28.362Z,100.00
2023-05-24T17:21:00.026Z,100.00
2023-05-24T17:23:31.277Z,100.00
2023-05-24T17:26:04.417Z,100.00
2023-05-24T17:28:34.665Z,100.00
2023-05-24T17:31:05.804Z,100.00
2023-05-24T17:33:36.082Z,100.00
2023-05-24T17:36:06.557Z,100.00
2023-05-24T17:38:37.991Z,100.00
2023-05-24T17:41:11.050Z,100.00
2023-05-24T17:43:42.249Z,100.00
2023-05-24T17:46:13.704Z,100.00
2023-05-24T17:48:44.538Z,100.00
2023-05-24T17:51:14.898Z,100.00
2023-05-24T17:53:45.184Z,100.00
2023-05-24T17:56:17.948Z,100.00
2023-05-24T17:58:48.776Z,100.00
2023-05-24T18:01:19.080Z,100.00
2023-05-24T18:03:49.252Z,100.00
2023-05-24T18:06:19.430Z,100.00
2023-05-24T18:08:49.655Z,100.00
2023-05-24T18:11:22.533Z,100.00
2023-05-24T18:13:52.641Z,100.00
2023-05-24T18:16:22.936Z,100.00
2023-05-24T18:18:53.119Z,100.00
2023-05-24T18:21:23.227Z,100.00
2023-05-24T18:23:55.995Z,100.00
2023-05-24T18:26:31.723Z,100.00
2023-05-24T18:29:01.953Z,100.00
2023-05-24T18:31:32.060Z,100.00
2023-05-24T18:34:02.646Z,100.00
2023-05-24T18:36:33.142Z,100.00
2023-05-24T18:39:03.504Z,100.00
2023-05-24T18:41:36.289Z,100.00
2023-05-24T18:44:06.470Z,100.00
2023-05-24T18:46:39.542Z,100.00
2023-05-24T18:49:11.198Z,100.00
2023-05-24T18:51:41.417Z,100.00
2023-05-24T18:54:11.586Z,100.00
2023-05-24T18:56:45.835Z,100.00
2023-05-24T18:59:21.855Z,100.00
2023-05-24T19:01:55.311Z,100.00
2023-05-24T19:04:25.209Z,100.00
2023-05-24T19:06:55.588Z,100.00
2023-05-24T19:09:25.797Z,100.00
2023-05-24T19:12:00.373Z,100.00
2023-05-24T19:14:31.297Z,100.00
2023-05-24T19:17:01.634Z,100.00
2023-05-24T19:19:32.604Z,100.00
2023-05-24T19:22:05.480Z,100.00
2023-05-24T19:24:35.659Z,100.00
2023-05-24T19:27:08.830Z,100.00
2023-05-24T19:29:40.212Z,100.00
2023-05-24T19:32:11.951Z,100.00
2023-05-24T19:34:42.607Z,100.00
2023-05-24T19:37:12.988Z,100.00
2023-05-24T19:39:43.207Z,100.00
2023-05-24T19:42:17.715Z,100.00
2023-05-24T19:44:47.846Z,100.00
2023-05-24T19:47:18.117Z,100.00
2023-05-24T19:49:48.323Z,100.00
2023-05-24T19:52:20.714Z,100.00
2023-05-24T19:54:51.034Z,100.00
2023-05-24T19:57:23.756Z,100.00
2023-05-24T19:59:56.804Z,100.00
2023-05-24T20:02:27.115Z,100.00
2023-05-24T20:04:57.408Z,100.00
2023-05-24T20:07:27.655Z,100.00
2023-05-24T20:09:57.844Z,100.00
2023-05-24T20:12:31.491Z,100.00
2023-05-24T20:15:01.673Z,100.00
2023-05-24T20:17:31.988Z,100.00
2023-05-24T20:20:02.256Z,100.00
2023-05-24T20:22:32.483Z,100.00
2023-05-24T20:25:02.759Z,100.00
2023-05-24T20:27:35.571Z,100.00
2023-05-24T20:30:06.593Z,100.00
2023-05-24T20:32:36.768Z,100.00
2023-05-24T20:35:07.505Z,100.00
2023-05-24T20:37:37.903Z,100.00
2023-05-24T20:40:09.860Z,100.00
2023-05-24T20:42:42.613Z,100.00
2023-05-24T20:45:14.078Z,100.00
2023-05-24T20:47:44.326Z,100.00
2023-05-24T20:50:16.417Z,100.00
2023-05-24T20:52:46.653Z,100.00
2023-05-24T20:55:16.950Z,100.00
2023-05-24T20:57:49.801Z,100.00
2023-05-24T21:00:20.316Z,100.00
2023-05-24T21:02:50.545Z,100.00
2023-05-24T21:05:20.732Z,100.00
2023-05-24T21:07:50.843Z,100.00
2023-05-24T21:10:21.756Z,100.00
2023-05-24T21:12:54.505Z,100.00
2023-05-24T21:15:25.371Z,100.00
2023-05-24T21:17:55.666Z,100.00
2023-05-24T21:20:26.026Z,100.00
2023-05-24T21:22:56.296Z,100.00
2023-05-24T21:25:26.451Z,100.00
2023-05-24T21:27:59.193Z,100.00
2023-05-24T21:30:29.602Z,100.00
2023-05-24T21:32:59.920Z,100.00
2023-05-24T21:35:30.115Z,100.00
2023-05-24T21:38:00.309Z,100.00
2023-05-24T21:40:30.487Z,100.00
2023-05-24T21:43:04.853Z,100.00
2023-05-24T21:45:35.290Z,100.00
2023-05-24T21:48:05.489Z,100.00
2023-05-24T21:50:37.448Z,100.00
2023-05-24T21:53:07.826Z,100.00
2023-05-24T21:55:37.917Z,100.00
2023-05-24T21:58:10.689Z,100.00
2023-05-24T22:00:43.254Z,100.00
2023-05-24T22:03:13.623Z,100.00
2023-05-24T22:05:44.325Z,100.00
2023-05-24T22:08:14.811Z,100.00
2023-05-24T22:10:45.007Z,100.00
2023-05-24T22:13:17.909Z,100.00
2023-05-24T22:15:48.451Z,100.00
2023-05-24T22:18:21.393Z,100.00
2023-05-24T22:20:52.739Z,100.00
2023-05-24T22:23:22.977Z,100.00
2023-05-24T22:25:53.139Z,100.00
2023-05-24T22:28:26.297Z,100.00
2023-05-24T22:30:57.702Z,100.00
2023-05-24T22:33:27.870Z,100.00
2023-05-24T22:35:58.049Z,100.00
2023-05-24T22:38:28.219Z,100.00
2023-05-24T22:40:58.419Z,100.00
2023-05-24T22:43:31.185Z,100.00
2023-05-24T22:46:01.514Z,100.00
2023-05-24T22:48:34.042Z,100.00
2023-05-24T22:51:04.621Z,100.00
2023-05-24T22:53:35.552Z,100.00
2023-05-24T22:56:08.040Z,100.00
2023-05-24T22:58:40.945Z,100.00
2023-05-24T23:01:11.662Z,100.00
2023-05-24T23:03:41.946Z,100.00
2023-05-24T23:06:12.215Z,100.00
2023-05-24T23:08:43.473Z,100.00
2023-05-24T23:11:17.445Z,100.00
2023-05-24T23:13:52.075Z,100.00
2023-05-24T23:16:22.204Z,100.00
2023-05-24T23:18:53.452Z,100.00
2023-05-24T23:21:24.991Z,100.00
2023-05-24T23:23:57.010Z,100.00
2023-05-24T23:26:27.107Z,100.00
2023-05-24T23:28:59.948Z,100.00
2023-05-24T23:31:30.081Z,100.00
2023-05-24T23:34:00.324Z,100.00
2023-05-24T23:36:30.502Z,100.00
2023-05-24T23:39:00.706Z,100.00
2023-05-24T23:41:30.904Z,100.00
2023-05-24T23:44:03.692Z,100.00
2023-05-24T23:46:33.892Z,100.00
2023-05-24T23:49:04.151Z,100.00
2023-05-24T23:51:36.810Z,100.00
2023-05-24T23:54:07.037Z,100.00
2023-05-24T23:56:37.222Z,100.00
2023-05-24T23:59:09.923Z,100.00
